sensor_id;sensor_type;location;lat;lon;timestamp;P1;durP1;ratioP1;P2;durP2;ratioP2
17382;SDS011;8809;51.892;8.384;2023-05-14T00:02:22;4.50;;;4.10;;
17382;SDS011;8809;51.892;8.384;2023-05-14T00:04:49;4.70;;;4.00;;
17382;SDS011;8809;51.892;8.384;2023-05-14T00:07:16;3.92;;;3.63;;
17382;SDS011;8809;51.892;8.384;2023-05-14T00:09:45;5.45;;;4.78;;
17382;SDS011;8809;51.892;8.384;2023-05-14T00:12:12;5.13;;;4.20;;
17382;SDS011;8809;51.892;8.384;2023-05-14T00:14:39;4.78;;;4.25;;
17382;SDS011;8809;51.892;8.384;2023-05-14T00:17:06;5.32;;;4.20;;
17382;SDS011;8809;51.892;8.384;2023-05-14T00:19:32;5.10;;;4.20;;
17382;SDS011;8809;51.892;8.384;2023-05-14T00:21:59;5.00;;;4.38;;
17382;SDS011;8809;51.892;8.384;2023-05-14T00:24:27;5.30;;;4.50;;
17382;SDS011;8809;51.892;8.384;2023-05-14T00:26:56;5.05;;;4.57;;
17382;SDS011;8809;51.892;8.384;2023-05-14T00:29:23;4.65;;;4.25;;
17382;SDS011;8809;51.892;8.384;2023-05-14T00:31:50;5.00;;;4.50;;
17382;SDS011;8809;51.892;8.384;2023-05-14T00:34:18;5.28;;;4.78;;
17382;SDS011;8809;51.892;8.384;2023-05-14T00:36:45;6.07;;;4.38;;
17382;SDS011;8809;51.892;8.384;2023-05-14T00:39:12;4.82;;;4.38;;
17382;SDS011;8809;51.892;8.384;2023-05-14T00:41:39;4.88;;;4.47;;
17382;SDS011;8809;51.892;8.384;2023-05-14T00:44:07;5.03;;;4.53;;
17382;SDS011;8809;51.892;8.384;2023-05-14T00:46:35;4.70;;;4.30;;
17382;SDS011;8809;51.892;8.384;2023-05-14T00:49:02;5.00;;;4.50;;
17382;SDS011;8809;51.892;8.384;2023-05-14T00:51:29;4.93;;;4.25;;
17382;SDS011;8809;51.892;8.384;2023-05-14T00:53:56;4.72;;;4.32;;
17382;SDS011;8809;51.892;8.384;2023-05-14T00:56:24;4.72;;;4.32;;
17382;SDS011;8809;51.892;8.384;2023-05-14T00:58:52;4.80;;;4.40;;
17382;SDS011;8809;51.892;8.384;2023-05-14T01:01:20;5.10;;;4.60;;
17382;SDS011;8809;51.892;8.384;2023-05-14T01:03:47;5.22;;;4.72;;
17382;SDS011;8809;51.892;8.384;2023-05-14T01:06:20;5.15;;;4.72;;
17382;SDS011;8809;51.892;8.384;2023-05-14T01:08:58;5.07;;;4.57;;
17382;SDS011;8809;51.892;8.384;2023-05-14T01:11:32;5.32;;;4.30;;
17382;SDS011;8809;51.892;8.384;2023-05-14T01:14:07;5.10;;;4.70;;
17382;SDS011;8809;51.892;8.384;2023-05-14T01:16:41;5.32;;;4.82;;
17382;SDS011;8809;51.892;8.384;2023-05-14T01:19:16;6.25;;;5.10;;
17382;SDS011;8809;51.892;8.384;2023-05-14T01:21:49;5.30;;;4.82;;
17382;SDS011;8809;51.892;8.384;2023-05-14T01:24:16;5.75;;;4.63;;
17382;SDS011;8809;51.892;8.384;2023-05-14T01:26:43;5.80;;;5.30;;
17382;SDS011;8809;51.892;8.384;2023-05-14T01:29:12;5.40;;;4.90;;
17382;SDS011;8809;51.892;8.384;2023-05-14T01:31:45;6.13;;;5.53;;
17382;SDS011;8809;51.892;8.384;2023-05-14T01:34:14;6.05;;;5.20;;
17382;SDS011;8809;51.892;8.384;2023-05-14T01:36:46;5.68;;;5.13;;
17382;SDS011;8809;51.892;8.384;2023-05-14T01:39:16;5.45;;;4.82;;
17382;SDS011;8809;51.892;8.384;2023-05-14T01:41:44;7.18;;;5.40;;
17382;SDS011;8809;51.892;8.384;2023-05-14T01:44:12;6.35;;;5.75;;
17382;SDS011;8809;51.892;8.384;2023-05-14T01:46:39;6.30;;;5.75;;
17382;SDS011;8809;51.892;8.384;2023-05-14T01:49:06;5.65;;;5.15;;
17382;SDS011;8809;51.892;8.384;2023-05-14T01:51:33;5.82;;;5.32;;
17382;SDS011;8809;51.892;8.384;2023-05-14T01:54:03;5.35;;;4.85;;
17382;SDS011;8809;51.892;8.384;2023-05-14T01:56:30;5.82;;;5.22;;
17382;SDS011;8809;51.892;8.384;2023-05-14T01:58:57;5.88;;;5.38;;
17382;SDS011;8809;51.892;8.384;2023-05-14T02:01:24;6.40;;;5.40;;
17382;SDS011;8809;51.892;8.384;2023-05-14T02:03:51;6.57;;;5.97;;
17382;SDS011;8809;51.892;8.384;2023-05-14T02:06:18;5.97;;;5.38;;
17382;SDS011;8809;51.892;8.384;2023-05-14T02:08:45;6.00;;;5.32;;
17382;SDS011;8809;51.892;8.384;2023-05-14T02:11:14;6.70;;;5.90;;
17382;SDS011;8809;51.892;8.384;2023-05-14T02:13:43;6.38;;;5.13;;
17382;SDS011;8809;51.892;8.384;2023-05-14T02:16:11;6.68;;;5.43;;
17382;SDS011;8809;51.892;8.384;2023-05-14T02:18:38;6.30;;;5.50;;
17382;SDS011;8809;51.892;8.384;2023-05-14T02:21:05;5.70;;;5.15;;
17382;SDS011;8809;51.892;8.384;2023-05-14T02:23:32;6.18;;;5.57;;
17382;SDS011;8809;51.892;8.384;2023-05-14T02:25:59;6.20;;;5.63;;
17382;SDS011;8809;51.892;8.384;2023-05-14T02:28:28;5.47;;;4.95;;
17382;SDS011;8809;51.892;8.384;2023-05-14T02:30:57;6.00;;;5.40;;
17382;SDS011;8809;51.892;8.384;2023-05-14T02:33:24;6.13;;;5.53;;
17382;SDS011;8809;51.892;8.384;2023-05-14T02:35:51;6.05;;;5.50;;
17382;SDS011;8809;51.892;8.384;2023-05-14T02:38:19;6.53;;;5.57;;
17382;SDS011;8809;51.892;8.384;2023-05-14T02:40:46;6.05;;;5.45;;
17382;SDS011;8809;51.892;8.384;2023-05-14T02:43:13;6.72;;;5.78;;
17382;SDS011;8809;51.892;8.384;2023-05-14T02:45:41;5.70;;;5.20;;
17382;SDS011;8809;51.892;8.384;2023-05-14T02:48:08;6.35;;;5.70;;
17382;SDS011;8809;51.892;8.384;2023-05-14T02:50:35;6.65;;;5.90;;
17382;SDS011;8809;51.892;8.384;2023-05-14T02:53:02;7.45;;;5.90;;
17382;SDS011;8809;51.892;8.384;2023-05-14T02:55:32;6.75;;;6.15;;
17382;SDS011;8809;51.892;8.384;2023-05-14T02:58:00;5.63;;;5.07;;
17382;SDS011;8809;51.892;8.384;2023-05-14T03:00:27;6.72;;;6.07;;
17382;SDS011;8809;51.892;8.384;2023-05-14T03:02:56;6.30;;;5.70;;
17382;SDS011;8809;51.892;8.384;2023-05-14T03:05:23;7.18;;;6.10;;
17382;SDS011;8809;51.892;8.384;2023-05-14T03:07:50;6.43;;;5.82;;
17382;SDS011;8809;51.892;8.384;2023-05-14T03:10:18;6.72;;;5.97;;
17382;SDS011;8809;51.892;8.384;2023-05-14T03:12:45;6.13;;;5.53;;
17382;SDS011;8809;51.892;8.384;2023-05-14T03:15:12;7.00;;;6.30;;
17382;SDS011;8809;51.892;8.384;2023-05-14T03:17:39;7.57;;;6.47;;
17382;SDS011;8809;51.892;8.384;2023-05-14T03:20:08;6.60;;;6.00;;
17382;SDS011;8809;51.892;8.384;2023-05-14T03:22:38;6.50;;;5.75;;
17382;SDS011;8809;51.892;8.384;2023-05-14T03:25:05;6.63;;;5.97;;
17382;SDS011;8809;51.892;8.384;2023-05-14T03:27:32;6.47;;;5.88;;
17382;SDS011;8809;51.892;8.384;2023-05-14T03:29:59;7.22;;;6.50;;
17382;SDS011;8809;51.892;8.384;2023-05-14T03:32:26;6.43;;;5.82;;
17382;SDS011;8809;51.892;8.384;2023-05-14T03:34:53;7.03;;;6.32;;
17382;SDS011;8809;51.892;8.384;2023-05-14T03:37:22;7.15;;;6.45;;
17382;SDS011;8809;51.892;8.384;2023-05-14T03:39:49;7.18;;;6.38;;
17382;SDS011;8809;51.892;8.384;2023-05-14T03:42:16;6.45;;;5.82;;
17382;SDS011;8809;51.892;8.384;2023-05-14T03:44:43;6.75;;;6.13;;
17382;SDS011;8809;51.892;8.384;2023-05-14T03:47:11;7.45;;;6.65;;
17382;SDS011;8809;51.892;8.384;2023-05-14T03:49:37;7.35;;;6.30;;
17382;SDS011;8809;51.892;8.384;2023-05-14T03:52:04;7.57;;;6.07;;
17382;SDS011;8809;51.892;8.384;2023-05-14T03:54:33;7.22;;;6.53;;
17382;SDS011;8809;51.892;8.384;2023-05-14T03:57:00;7.40;;;6.70;;
17382;SDS011;8809;51.892;8.384;2023-05-14T03:59:28;7.53;;;6.60;;
17382;SDS011;8809;51.892;8.384;2023-05-14T04:01:58;7.60;;;6.75;;
17382;SDS011;8809;51.892;8.384;2023-05-14T04:04:28;7.65;;;6.85;;
17382;SDS011;8809;51.892;8.384;2023-05-14T04:06:55;8.13;;;7.20;;
17382;SDS011;8809;51.892;8.384;2023-05-14T04:09:23;7.22;;;6.53;;
17382;SDS011;8809;51.892;8.384;2023-05-14T04:11:51;7.10;;;6.47;;
17382;SDS011;8809;51.892;8.384;2023-05-14T04:14:18;6.78;;;6.07;;
17382;SDS011;8809;51.892;8.384;2023-05-14T04:16:45;6.57;;;5.97;;
17382;SDS011;8809;51.892;8.384;2023-05-14T04:19:12;7.68;;;6.88;;
17382;SDS011;8809;51.892;8.384;2023-05-14T04:21:42;6.90;;;6.30;;
17382;SDS011;8809;51.892;8.384;2023-05-14T04:24:14;6.40;;;5.55;;
17382;SDS011;8809;51.892;8.384;2023-05-14T04:26:48;8.43;;;6.05;;
17382;SDS011;8809;51.892;8.384;2023-05-14T04:29:16;6.78;;;6.15;;
17382;SDS011;8809;51.892;8.384;2023-05-14T04:31:44;7.00;;;6.30;;
17382;SDS011;8809;51.892;8.384;2023-05-14T04:34:10;6.60;;;6.00;;
17382;SDS011;8809;51.892;8.384;2023-05-14T04:36:40;6.40;;;5.70;;
17382;SDS011;8809;51.892;8.384;2023-05-14T04:39:07;6.40;;;5.80;;
17382;SDS011;8809;51.892;8.384;2023-05-14T04:41:37;6.53;;;5.90;;
17382;SDS011;8809;51.892;8.384;2023-05-14T04:44:04;7.05;;;6.10;;
17382;SDS011;8809;51.892;8.384;2023-05-14T04:46:33;6.63;;;6.00;;
17382;SDS011;8809;51.892;8.384;2023-05-14T04:49:00;6.00;;;5.38;;
17382;SDS011;8809;51.892;8.384;2023-05-14T04:51:37;7.28;;;5.88;;
17382;SDS011;8809;51.892;8.384;2023-05-14T04:54:04;6.07;;;5.47;;
17382;SDS011;8809;51.892;8.384;2023-05-14T04:56:31;6.15;;;5.65;;
17382;SDS011;8809;51.892;8.384;2023-05-14T04:59:00;5.50;;;5.00;;
17382;SDS011;8809;51.892;8.384;2023-05-14T05:01:27;5.25;;;4.75;;
17382;SDS011;8809;51.892;8.384;2023-05-14T05:03:56;4.65;;;4.25;;
17382;SDS011;8809;51.892;8.384;2023-05-14T05:06:23;4.25;;;3.85;;
17382;SDS011;8809;51.892;8.384;2023-05-14T05:08:51;4.50;;;4.10;;
17382;SDS011;8809;51.892;8.384;2023-05-14T05:11:18;4.88;;;4.47;;
17382;SDS011;8809;51.892;8.384;2023-05-14T05:13:46;4.20;;;3.80;;
17382;SDS011;8809;51.892;8.384;2023-05-14T05:16:13;5.10;;;4.30;;
17382;SDS011;8809;51.892;8.384;2023-05-14T05:18:40;5.22;;;4.72;;
17382;SDS011;8809;51.892;8.384;2023-05-14T05:21:10;5.15;;;4.50;;
17382;SDS011;8809;51.892;8.384;2023-05-14T05:23:37;4.60;;;4.10;;
17382;SDS011;8809;51.892;8.384;2023-05-14T05:26:05;4.60;;;4.20;;
17382;SDS011;8809;51.892;8.384;2023-05-14T05:28:32;4.40;;;3.97;;
17382;SDS011;8809;51.892;8.384;2023-05-14T05:30:59;4.30;;;3.90;;
17382;SDS011;8809;51.892;8.384;2023-05-14T05:33:27;4.10;;;3.70;;
17382;SDS011;8809;51.892;8.384;2023-05-14T05:35:54;4.80;;;4.38;;
17382;SDS011;8809;51.892;8.384;2023-05-14T05:38:23;4.72;;;4.32;;
17382;SDS011;8809;51.892;8.384;2023-05-14T05:40:51;4.68;;;4.28;;
17382;SDS011;8809;51.892;8.384;2023-05-14T05:43:18;5.10;;;4.70;;
17382;SDS011;8809;51.892;8.384;2023-05-14T05:45:45;4.35;;;3.95;;
17382;SDS011;8809;51.892;8.384;2023-05-14T05:48:12;4.63;;;4.10;;
17382;SDS011;8809;51.892;8.384;2023-05-14T05:50:39;5.13;;;4.63;;
17382;SDS011;8809;51.892;8.384;2023-05-14T05:53:09;5.07;;;4.57;;
17382;SDS011;8809;51.892;8.384;2023-05-14T05:55:39;5.07;;;4.57;;
17382;SDS011;8809;51.892;8.384;2023-05-14T05:58:06;6.85;;;5.43;;
17382;SDS011;8809;51.892;8.384;2023-05-14T06:00:33;5.82;;;5.22;;
17382;SDS011;8809;51.892;8.384;2023-05-14T06:03:00;5.43;;;4.88;;
17382;SDS011;8809;51.892;8.384;2023-05-14T06:05:28;5.82;;;5.03;;
17382;SDS011;8809;51.892;8.384;2023-05-14T06:07:55;5.75;;;5.15;;
17382;SDS011;8809;51.892;8.384;2023-05-14T06:10:24;6.07;;;5.47;;
17382;SDS011;8809;51.892;8.384;2023-05-14T06:12:53;5.78;;;5.25;;
17382;SDS011;8809;51.892;8.384;2023-05-14T06:15:21;6.18;;;5.53;;
17382;SDS011;8809;51.892;8.384;2023-05-14T06:17:48;6.30;;;5.70;;
17382;SDS011;8809;51.892;8.384;2023-05-14T06:20:15;5.35;;;4.85;;
17382;SDS011;8809;51.892;8.384;2023-05-14T06:22:43;5.72;;;5.13;;
17382;SDS011;8809;51.892;8.384;2023-05-14T06:25:10;5.28;;;4.78;;
17382;SDS011;8809;51.892;8.384;2023-05-14T06:27:39;5.72;;;5.13;;
17382;SDS011;8809;51.892;8.384;2023-05-14T06:30:11;4.85;;;4.45;;
17382;SDS011;8809;51.892;8.384;2023-05-14T06:32:39;6.70;;;4.50;;
17382;SDS011;8809;51.892;8.384;2023-05-14T06:35:06;4.95;;;4.43;;
17382;SDS011;8809;51.892;8.384;2023-05-14T06:37:34;4.75;;;4.32;;
17382;SDS011;8809;51.892;8.384;2023-05-14T06:40:01;4.25;;;3.85;;
17382;SDS011;8809;51.892;8.384;2023-05-14T06:42:29;3.80;;;3.50;;
17382;SDS011;8809;51.892;8.384;2023-05-14T06:44:56;3.88;;;3.50;;
17382;SDS011;8809;51.892;8.384;2023-05-14T06:47:25;3.92;;;3.63;;
17382;SDS011;8809;51.892;8.384;2023-05-14T06:49:52;4.40;;;4.00;;
17382;SDS011;8809;51.892;8.384;2023-05-14T06:52:20;4.00;;;3.70;;
17382;SDS011;8809;51.892;8.384;2023-05-14T06:54:47;4.00;;;3.70;;
17382;SDS011;8809;51.892;8.384;2023-05-14T06:57:14;4.20;;;3.80;;
17382;SDS011;8809;51.892;8.384;2023-05-14T06:59:41;4.15;;;3.80;;
17382;SDS011;8809;51.892;8.384;2023-05-14T07:02:08;4.28;;;3.88;;
17382;SDS011;8809;51.892;8.384;2023-05-14T07:04:36;4.03;;;3.72;;
17382;SDS011;8809;51.892;8.384;2023-05-14T07:07:03;3.50;;;3.20;;
17382;SDS011;8809;51.892;8.384;2023-05-14T07:09:31;3.88;;;3.47;;
17382;SDS011;8809;51.892;8.384;2023-05-14T07:11:58;3.67;;;3.38;;
17382;SDS011;8809;51.892;8.384;2023-05-14T07:14:27;4.10;;;3.70;;
17382;SDS011;8809;51.892;8.384;2023-05-14T07:16:54;3.67;;;3.38;;
17382;SDS011;8809;51.892;8.384;2023-05-14T07:19:22;4.30;;;3.90;;
17382;SDS011;8809;51.892;8.384;2023-05-14T07:21:50;4.22;;;3.83;;
17382;SDS011;8809;51.892;8.384;2023-05-14T07:24:18;4.38;;;3.60;;
17382;SDS011;8809;51.892;8.384;2023-05-14T07:26:46;3.88;;;3.58;;
17382;SDS011;8809;51.892;8.384;2023-05-14T07:29:13;4.50;;;4.10;;
17382;SDS011;8809;51.892;8.384;2023-05-14T07:31:40;3.92;;;3.53;;
17382;SDS011;8809;51.892;8.384;2023-05-14T07:34:07;3.67;;;3.38;;
17382;SDS011;8809;51.892;8.384;2023-05-14T07:36:38;4.03;;;3.63;;
17382;SDS011;8809;51.892;8.384;2023-05-14T07:39:08;4.18;;;3.88;;
17382;SDS011;8809;51.892;8.384;2023-05-14T07:41:36;5.57;;;4.70;;
17382;SDS011;8809;51.892;8.384;2023-05-14T07:44:06;4.80;;;4.30;;
17382;SDS011;8809;51.892;8.384;2023-05-14T07:46:32;4.72;;;4.32;;
17382;SDS011;8809;51.892;8.384;2023-05-14T07:49:00;4.47;;;4.07;;
17382;SDS011;8809;51.892;8.384;2023-05-14T07:51:27;4.47;;;4.07;;
17382;SDS011;8809;51.892;8.384;2023-05-14T07:53:54;6.15;;;5.57;;
17382;SDS011;8809;51.892;8.384;2023-05-14T07:56:23;5.80;;;5.30;;
17382;SDS011;8809;51.892;8.384;2023-05-14T07:58:50;5.45;;;4.95;;
17382;SDS011;8809;51.892;8.384;2023-05-14T08:01:17;5.53;;;5.03;;
17382;SDS011;8809;51.892;8.384;2023-05-14T08:03:45;5.72;;;5.18;;
17382;SDS011;8809;51.892;8.384;2023-05-14T08:06:12;6.25;;;5.65;;
17382;SDS011;8809;51.892;8.384;2023-05-14T08:08:39;5.20;;;4.80;;
17382;SDS011;8809;51.892;8.384;2023-05-14T08:11:09;4.88;;;4.47;;
17382;SDS011;8809;51.892;8.384;2023-05-14T08:13:38;4.22;;;3.80;;
17382;SDS011;8809;51.892;8.384;2023-05-14T08:16:06;4.57;;;4.18;;
17382;SDS011;8809;51.892;8.384;2023-05-14T08:18:35;3.90;;;3.60;;
17382;SDS011;8809;51.892;8.384;2023-05-14T08:21:06;3.45;;;3.15;;
17382;SDS011;8809;51.892;8.384;2023-05-14T08:23:33;4.60;;;3.88;;
17382;SDS011;8809;51.892;8.384;2023-05-14T08:26:00;4.35;;;3.90;;
17382;SDS011;8809;51.892;8.384;2023-05-14T08:28:28;4.18;;;3.50;;
17382;SDS011;8809;51.892;8.384;2023-05-14T08:30:57;4.30;;;3.90;;
17382;SDS011;8809;51.892;8.384;2023-05-14T08:33:24;5.38;;;3.80;;
17382;SDS011;8809;51.892;8.384;2023-05-14T08:35:54;4.18;;;3.78;;
17382;SDS011;8809;51.892;8.384;2023-05-14T08:38:25;4.43;;;3.60;;
17382;SDS011;8809;51.892;8.384;2023-05-14T08:40:55;4.47;;;3.90;;
17382;SDS011;8809;51.892;8.384;2023-05-14T08:43:24;3.95;;;3.50;;
17382;SDS011;8809;51.892;8.384;2023-05-14T08:45:59;4.03;;;3.63;;
17382;SDS011;8809;51.892;8.384;2023-05-14T08:48:31;3.85;;;3.53;;
17382;SDS011;8809;51.892;8.384;2023-05-14T08:50:59;3.80;;;3.50;;
17382;SDS011;8809;51.892;8.384;2023-05-14T08:53:27;3.55;;;3.25;;
17382;SDS011;8809;51.892;8.384;2023-05-14T08:55:55;3.30;;;3.00;;
17382;SDS011;8809;51.892;8.384;2023-05-14T08:58:23;3.33;;;3.03;;
17382;SDS011;8809;51.892;8.384;2023-05-14T09:00:54;4.38;;;3.10;;
17382;SDS011;8809;51.892;8.384;2023-05-14T09:03:23;3.85;;;3.25;;
17382;SDS011;8809;51.892;8.384;2023-05-14T09:05:51;3.22;;;2.95;;
17382;SDS011;8809;51.892;8.384;2023-05-14T09:08:18;3.03;;;2.83;;
17382;SDS011;8809;51.892;8.384;2023-05-14T09:10:45;2.85;;;2.58;;
17382;SDS011;8809;51.892;8.384;2023-05-14T09:13:13;3.80;;;2.75;;
17382;SDS011;8809;51.892;8.384;2023-05-14T09:15:42;2.42;;;2.25;;
17382;SDS011;8809;51.892;8.384;2023-05-14T09:18:10;2.65;;;2.45;;
17382;SDS011;8809;51.892;8.384;2023-05-14T09:20:39;3.08;;;2.42;;
17382;SDS011;8809;51.892;8.384;2023-05-14T09:23:06;2.95;;;2.65;;
17382;SDS011;8809;51.892;8.384;2023-05-14T09:25:33;2.80;;;2.50;;
17382;SDS011;8809;51.892;8.384;2023-05-14T09:28:04;2.63;;;2.17;;
17382;SDS011;8809;51.892;8.384;2023-05-14T09:30:32;2.22;;;2.03;;
17382;SDS011;8809;51.892;8.384;2023-05-14T09:33:01;2.30;;;2.10;;
17382;SDS011;8809;51.892;8.384;2023-05-14T09:35:31;2.40;;;2.20;;
17382;SDS011;8809;51.892;8.384;2023-05-14T09:38:00;2.38;;;2.10;;
17382;SDS011;8809;51.892;8.384;2023-05-14T09:40:28;2.22;;;2.03;;
17382;SDS011;8809;51.892;8.384;2023-05-14T09:42:55;2.15;;;2.00;;
17382;SDS011;8809;51.892;8.384;2023-05-14T09:45:25;2.25;;;2.05;;
17382;SDS011;8809;51.892;8.384;2023-05-14T09:47:52;2.05;;;1.85;;
17382;SDS011;8809;51.892;8.384;2023-05-14T09:50:19;2.58;;;1.73;;
17382;SDS011;8809;51.892;8.384;2023-05-14T09:52:47;3.47;;;2.17;;
17382;SDS011;8809;51.892;8.384;2023-05-14T09:55:15;1.90;;;1.70;;
17382;SDS011;8809;51.892;8.384;2023-05-14T09:57:42;2.53;;;1.73;;
17382;SDS011;8809;51.892;8.384;2023-05-14T10:00:11;2.10;;;1.90;;
17382;SDS011;8809;51.892;8.384;2023-05-14T10:02:41;2.15;;;1.80;;
17382;SDS011;8809;51.892;8.384;2023-05-14T10:05:12;2.63;;;2.42;;
17382;SDS011;8809;51.892;8.384;2023-05-14T10:07:41;3.13;;;2.08;;
17382;SDS011;8809;51.892;8.384;2023-05-14T10:10:12;2.50;;;1.83;;
17382;SDS011;8809;51.892;8.384;2023-05-14T10:12:45;2.28;;;1.95;;
17382;SDS011;8809;51.892;8.384;2023-05-14T10:15:18;1.77;;;1.60;;
17382;SDS011;8809;51.892;8.384;2023-05-14T10:17:55;1.95;;;1.50;;
17382;SDS011;8809;51.892;8.384;2023-05-14T10:20:28;2.00;;;1.38;;
17382;SDS011;8809;51.892;8.384;2023-05-14T10:22:58;2.35;;;1.70;;
17382;SDS011;8809;51.892;8.384;2023-05-14T10:25:27;2.00;;;1.80;;
17382;SDS011;8809;51.892;8.384;2023-05-14T10:27:56;1.88;;;1.60;;
17382;SDS011;8809;51.892;8.384;2023-05-14T10:30:24;1.90;;;1.50;;
17382;SDS011;8809;51.892;8.384;2023-05-14T10:33:04;1.50;;;1.40;;
17382;SDS011;8809;51.892;8.384;2023-05-14T10:35:39;1.73;;;1.50;;
17382;SDS011;8809;51.892;8.384;2023-05-14T10:38:21;1.90;;;1.80;;
17382;SDS011;8809;51.892;8.384;2023-05-14T10:40:56;2.17;;;1.70;;
17382;SDS011;8809;51.892;8.384;2023-05-14T10:43:27;1.60;;;1.50;;
17382;SDS011;8809;51.892;8.384;2023-05-14T10:45:55;1.77;;;1.52;;
17382;SDS011;8809;51.892;8.384;2023-05-14T10:48:24;2.20;;;2.00;;
17382;SDS011;8809;51.892;8.384;2023-05-14T10:50:55;2.35;;;1.90;;
17382;SDS011;8809;51.892;8.384;2023-05-14T10:53:30;2.00;;;1.70;;
17382;SDS011;8809;51.892;8.384;2023-05-14T10:56:02;1.60;;;1.50;;
17382;SDS011;8809;51.892;8.384;2023-05-14T10:58:31;2.22;;;1.52;;
17382;SDS011;8809;51.892;8.384;2023-05-14T11:01:00;2.00;;;1.70;;
17382;SDS011;8809;51.892;8.384;2023-05-14T11:03:28;1.60;;;1.50;;
17382;SDS011;8809;51.892;8.384;2023-05-14T11:05:56;1.60;;;1.50;;
17382;SDS011;8809;51.892;8.384;2023-05-14T11:08:26;1.60;;;1.50;;
17382;SDS011;8809;51.892;8.384;2023-05-14T11:10:54;1.75;;;1.52;;
17382;SDS011;8809;51.892;8.384;2023-05-14T11:13:28;1.80;;;1.70;;
17382;SDS011;8809;51.892;8.384;2023-05-14T11:15:56;2.17;;;1.70;;
17382;SDS011;8809;51.892;8.384;2023-05-14T11:18:25;1.73;;;1.60;;
17382;SDS011;8809;51.892;8.384;2023-05-14T11:20:56;1.70;;;1.60;;
17382;SDS011;8809;51.892;8.384;2023-05-14T11:23:26;1.50;;;1.40;;
17382;SDS011;8809;51.892;8.384;2023-05-14T11:25:55;1.50;;;1.40;;
17382;SDS011;8809;51.892;8.384;2023-05-14T11:28:22;1.65;;;1.55;;
17382;SDS011;8809;51.892;8.384;2023-05-14T11:30:53;2.10;;;1.90;;
17382;SDS011;8809;51.892;8.384;2023-05-14T11:33:20;3.13;;;2.10;;
17382;SDS011;8809;51.892;8.384;2023-05-14T11:35:47;1.80;;;1.70;;
17382;SDS011;8809;51.892;8.384;2023-05-14T11:38:14;2.00;;;1.80;;
17382;SDS011;8809;51.892;8.384;2023-05-14T11:40:46;2.10;;;1.90;;
17382;SDS011;8809;51.892;8.384;2023-05-14T11:43:17;2.55;;;2.30;;
17382;SDS011;8809;51.892;8.384;2023-05-14T11:45:48;2.20;;;2.08;;
17382;SDS011;8809;51.892;8.384;2023-05-14T11:48:20;1.73;;;1.60;;
17382;SDS011;8809;51.892;8.384;2023-05-14T11:50:50;2.25;;;2.03;;
17382;SDS011;8809;51.892;8.384;2023-05-14T11:53:18;2.33;;;2.13;;
17382;SDS011;8809;51.892;8.384;2023-05-14T11:55:46;2.08;;;1.98;;
17382;SDS011;8809;51.892;8.384;2023-05-14T11:58:14;2.90;;;1.90;;
17382;SDS011;8809;51.892;8.384;2023-05-14T12:00:43;1.85;;;1.73;;
17382;SDS011;8809;51.892;8.384;2023-05-14T12:03:15;2.35;;;2.10;;
17382;SDS011;8809;51.892;8.384;2023-05-14T12:05:57;2.45;;;2.10;;
17382;SDS011;8809;51.892;8.384;2023-05-14T12:08:26;2.10;;;1.90;;
17382;SDS011;8809;51.892;8.384;2023-05-14T12:10:54;3.08;;;2.10;;
17382;SDS011;8809;51.892;8.384;2023-05-14T12:13:24;2.50;;;2.05;;
17382;SDS011;8809;51.892;8.384;2023-05-14T12:15:53;2.10;;;1.90;;
17382;SDS011;8809;51.892;8.384;2023-05-14T12:18:21;2.90;;;2.13;;
17382;SDS011;8809;51.892;8.384;2023-05-14T12:20:50;3.03;;;2.00;;
17382;SDS011;8809;51.892;8.384;2023-05-14T12:23:24;3.10;;;2.13;;
17382;SDS011;8809;51.892;8.384;2023-05-14T12:25:54;2.67;;;1.70;;
17382;SDS011;8809;51.892;8.384;2023-05-14T12:28:21;3.40;;;1.92;;
17382;SDS011;8809;51.892;8.384;2023-05-14T12:30:54;2.95;;;2.03;;
17382;SDS011;8809;51.892;8.384;2023-05-14T12:33:22;2.58;;;2.00;;
17382;SDS011;8809;51.892;8.384;2023-05-14T12:35:50;3.83;;;2.42;;
17382;SDS011;8809;51.892;8.384;2023-05-14T12:38:22;2.90;;;2.30;;
17382;SDS011;8809;51.892;8.384;2023-05-14T12:40:51;3.05;;;2.50;;
17382;SDS011;8809;51.892;8.384;2023-05-14T12:43:18;2.00;;;1.90;;
17382;SDS011;8809;51.892;8.384;2023-05-14T12:45:46;2.47;;;2.28;;
17382;SDS011;8809;51.892;8.384;2023-05-14T12:48:13;2.00;;;1.90;;
17382;SDS011;8809;51.892;8.384;2023-05-14T12:50:40;2.20;;;2.00;;
17382;SDS011;8809;51.892;8.384;2023-05-14T12:53:07;2.00;;;1.90;;
17382;SDS011;8809;51.892;8.384;2023-05-14T12:55:35;2.15;;;1.98;;
17382;SDS011;8809;51.892;8.384;2023-05-14T12:58:03;2.40;;;2.20;;
17382;SDS011;8809;51.892;8.384;2023-05-14T13:00:30;2.30;;;2.10;;
17382;SDS011;8809;51.892;8.384;2023-05-14T13:02:57;2.40;;;2.20;;
17382;SDS011;8809;51.892;8.384;2023-05-14T13:05:24;3.22;;;1.85;;
17382;SDS011;8809;51.892;8.384;2023-05-14T13:07:51;1.90;;;1.80;;
17382;SDS011;8809;51.892;8.384;2023-05-14T13:10:19;1.83;;;1.70;;
17382;SDS011;8809;51.892;8.384;2023-05-14T13:12:47;1.95;;;1.85;;
17382;SDS011;8809;51.892;8.384;2023-05-14T13:15:15;2.78;;;1.70;;
17382;SDS011;8809;51.892;8.384;2023-05-14T13:17:42;1.90;;;1.80;;
17382;SDS011;8809;51.892;8.384;2023-05-14T13:20:09;1.70;;;1.60;;
17382;SDS011;8809;51.892;8.384;2023-05-14T13:22:37;3.05;;;1.90;;
17382;SDS011;8809;51.892;8.384;2023-05-14T13:25:04;1.52;;;1.42;;
17382;SDS011;8809;51.892;8.384;2023-05-14T13:27:32;1.73;;;1.63;;
17382;SDS011;8809;51.892;8.384;2023-05-14T13:30:02;1.65;;;1.55;;
17382;SDS011;8809;51.892;8.384;2023-05-14T13:32:29;1.60;;;1.50;;
17382;SDS011;8809;51.892;8.384;2023-05-14T13:34:56;1.80;;;1.70;;
17382;SDS011;8809;51.892;8.384;2023-05-14T13:37:23;2.13;;;1.92;;
17382;SDS011;8809;51.892;8.384;2023-05-14T13:39:51;2.75;;;2.50;;
17382;SDS011;8809;51.892;8.384;2023-05-14T13:42:18;2.38;;;2.17;;
17382;SDS011;8809;51.892;8.384;2023-05-14T13:44:45;2.05;;;1.90;;
17382;SDS011;8809;51.892;8.384;2023-05-14T13:47:13;1.90;;;1.80;;
17382;SDS011;8809;51.892;8.384;2023-05-14T13:49:41;3.33;;;2.90;;
17382;SDS011;8809;51.892;8.384;2023-05-14T13:52:08;2.40;;;2.20;;
17382;SDS011;8809;51.892;8.384;2023-05-14T13:54:35;2.65;;;2.45;;
17382;SDS011;8809;51.892;8.384;2023-05-14T13:57:02;2.72;;;2.30;;
17382;SDS011;8809;51.892;8.384;2023-05-14T13:59:30;2.50;;;2.30;;
17382;SDS011;8809;51.892;8.384;2023-05-14T14:01:57;2.42;;;2.22;;
17382;SDS011;8809;51.892;8.384;2023-05-14T14:04:26;2.28;;;2.08;;
17382;SDS011;8809;51.892;8.384;2023-05-14T14:06:55;2.20;;;2.00;;
17382;SDS011;8809;51.892;8.384;2023-05-14T14:09:22;2.40;;;2.20;;
17382;SDS011;8809;51.892;8.384;2023-05-14T14:11:50;1.90;;;1.80;;
17382;SDS011;8809;51.892;8.384;2023-05-14T14:14:17;2.10;;;1.90;;
17382;SDS011;8809;51.892;8.384;2023-05-14T14:16:44;3.13;;;2.10;;
17382;SDS011;8809;51.892;8.384;2023-05-14T14:19:11;2.20;;;1.90;;
17382;SDS011;8809;51.892;8.384;2023-05-14T14:21:40;2.13;;;1.98;;
17382;SDS011;8809;51.892;8.384;2023-05-14T14:24:07;2.28;;;2.08;;
17382;SDS011;8809;51.892;8.384;2023-05-14T14:26:34;2.13;;;1.92;;
17382;SDS011;8809;51.892;8.384;2023-05-14T14:29:01;3.47;;;2.08;;
17382;SDS011;8809;51.892;8.384;2023-05-14T14:31:30;3.97;;;2.40;;
17382;SDS011;8809;51.892;8.384;2023-05-14T14:33:57;2.22;;;2.03;;
17382;SDS011;8809;51.892;8.384;2023-05-14T14:36:27;2.17;;;1.98;;
17382;SDS011;8809;51.892;8.384;2023-05-14T14:38:57;2.30;;;2.10;;
17382;SDS011;8809;51.892;8.384;2023-05-14T14:41:24;4.03;;;1.92;;
17382;SDS011;8809;51.892;8.384;2023-05-14T14:43:55;1.60;;;1.50;;
17382;SDS011;8809;51.892;8.384;2023-05-14T14:46:22;2.33;;;1.58;;
17382;SDS011;8809;51.892;8.384;2023-05-14T14:48:49;2.60;;;1.65;;
17382;SDS011;8809;51.892;8.384;2023-05-14T14:51:16;2.45;;;1.50;;
17382;SDS011;8809;51.892;8.384;2023-05-14T14:53:43;1.60;;;1.50;;
17382;SDS011;8809;51.892;8.384;2023-05-14T14:56:11;3.65;;;1.67;;
17382;SDS011;8809;51.892;8.384;2023-05-14T14:58:38;1.80;;;1.70;;
17382;SDS011;8809;51.892;8.384;2023-05-14T15:01:05;1.67;;;1.50;;
17382;SDS011;8809;51.892;8.384;2023-05-14T15:03:32;2.00;;;1.88;;
17382;SDS011;8809;51.892;8.384;2023-05-14T15:05:59;2.13;;;1.88;;
17382;SDS011;8809;51.892;8.384;2023-05-14T15:08:27;1.65;;;1.55;;